Map

Track Data

SID SEASON NUMBER BASIN SUBBASIN NAME ISO_TIME NATURE LAT LON WMO_WIND WMO_PRES WMO_AGENCY TRACK_TYPE DIST2LAND LANDFALL IFLAG USA_AGENCY USA_ATCF_ID USA_LAT USA_LON USA_RECORD USA_STATUS USA_WIND USA_PRES USA_SSHS USA_R34_NE USA_R34_SE USA_R34_SW USA_R34_NW USA_R50_NE USA_R50_SE USA_R50_SW USA_R50_NW USA_R64_NE USA_R64_SE USA_R64_SW USA_R64_NW USA_POCI USA_ROCI USA_RMW USA_EYE TOKYO_LAT TOKYO_LON TOKYO_GRADE TOKYO_WIND TOKYO_PRES TOKYO_R50_DIR TOKYO_R50_LONG TOKYO_R50_SHORT TOKYO_R30_DIR TOKYO_R30_LONG TOKYO_R30_SHORT TOKYO_LAND CMA_LAT CMA_LON CMA_CAT CMA_WIND CMA_PRES HKO_LAT HKO_LON HKO_CAT HKO_WIND HKO_PRES NEWDELHI_LAT NEWDELHI_LON NEWDELHI_GRADE NEWDELHI_WIND NEWDELHI_PRES NEWDELHI_CI NEWDELHI_DP NEWDELHI_POCI REUNION_LAT REUNION_LON REUNION_TYPE REUNION_WIND REUNION_PRES REUNION_TNUM REUNION_CI REUNION_RMW REUNION_R34_NE REUNION_R34_SE REUNION_R34_SW REUNION_R34_NW REUNION_R50_NE REUNION_R50_SE REUNION_R50_SW REUNION_R50_NW REUNION_R64_NE REUNION_R64_SE REUNION_R64_SW REUNION_R64_NW BOM_LAT BOM_LON BOM_TYPE BOM_WIND BOM_PRES BOM_TNUM BOM_CI BOM_RMW BOM_R34_NE BOM_R34_SE BOM_R34_SW BOM_R34_NW BOM_R50_NE BOM_R50_SE BOM_R50_SW BOM_R50_NW BOM_R64_NE BOM_R64_SE BOM_R64_SW BOM_R64_NW BOM_ROCI BOM_POCI BOM_EYE BOM_POS_METHOD BOM_PRES_METHOD NADI_LAT NADI_LON NADI_CAT NADI_WIND NADI_PRES WELLINGTON_LAT WELLINGTON_LON WELLINGTON_WIND WELLINGTON_PRES DS824_LAT DS824_LON DS824_STAGE DS824_WIND DS824_PRES TD9636_LAT TD9636_LON TD9636_STAGE TD9636_WIND TD9636_PRES TD9635_LAT TD9635_LON TD9635_WIND TD9635_PRES TD9635_ROCI NEUMANN_LAT NEUMANN_LON NEUMANN_CLASS NEUMANN_WIND NEUMANN_PRES MLC_LAT MLC_LON MLC_CLASS MLC_WIND MLC_PRES USA_GUST BOM_GUST BOM_GUST_PER REUNION_GUST REUNION_GUST_PER USA_SEAHGT USA_SEARAD_NE USA_SEARAD_SE USA_SEARAD_SW USA_SEARAD_NW STORM_SPEED STORM_DIR
1982267N25289 1982 82 NA NA NOT_NAMED 1982-09-24 00:00:00 TS 25.3000 -71.5000 20 hurdat_atl main 483 480 O_____________ hurdat_atl AL071982 25.3000 -71.5000 TD 20 -1 11 303
1982267N25289 1982 82 NA NA NOT_NAMED 1982-09-24 03:00:00 TS 25.6080 -72.0152 main 502 500 P_____________ AL071982 25.6080 -72.0152 TD 22 -1 11 308
1982267N25289 1982 82 NA NA NOT_NAMED 1982-09-24 06:00:00 TS 26.0000 -72.5000 25 hurdat_atl main 538 530 O_____________ hurdat_atl AL071982 26.0000 -72.5000 TD 25 -1 12 319
1982267N25289 1982 82 NA NA NOT_NAMED 1982-09-24 09:00:00 TS 26.5272 -72.8914 main 530 529 P_____________ AL071982 26.5272 -72.8914 TD 25 -1 12 338
1982267N25289 1982 82 NA NA NOT_NAMED 1982-09-24 12:00:00 TS 27.1000 -73.0000 25 hurdat_atl main 546 546 O_____________ hurdat_atl AL071982 27.1000 -73.0000 TD 25 -1 11 12
1982267N25289 1982 82 NA NA NOT_NAMED 1982-09-24 15:00:00 TS 27.6155 -72.6339 main 605 605 P_____________ AL071982 27.6155 -72.6339 TD 27 -1 13 39
1982267N25289 1982 82 NA NA NOT_NAMED 1982-09-24 18:00:00 TS 28.1000 -72.1000 30 hurdat_atl main 674 674 O_____________ hurdat_atl AL071982 28.1000 -72.1000 TD 30 -1 12 38
1982267N25289 1982 82 NA NA NOT_NAMED 1982-09-24 21:00:00 TS 28.5496 -71.7990 main 722 722 P_____________ AL071982 28.5496 -71.7990 TD 30 -1 10 30
1982267N25289 1982 82 NA NA NOT_NAMED 1982-09-25 00:00:00 TS 29.0000 -71.5000 30 hurdat_atl main 776 770 O_____________ hurdat_atl AL071982 29.0000 -71.5000 TD 30 -1 11 34
1982267N25289 1982 82 NA NA NOT_NAMED 1982-09-25 03:00:00 TS 29.4925 -71.0798 main 770 761 P_____________ AL071982 29.4925 -71.0798 TD 30 -1 13 38
1982267N25289 1982 82 NA NA NOT_NAMED 1982-09-25 06:00:00 TS 30.0000 -70.6000 30 hurdat_atl main 761 759 O_____________ hurdat_atl AL071982 30.0000 -70.6000 TD 30 -1 13 40
1982267N25289 1982 82 NA NA NOT_NAMED 1982-09-25 09:00:00 TS 30.4773 -70.1141 main 758 758 P_____________ AL071982 30.4773 -70.1141 TD 30 -1 13 41
1982267N25289 1982 82 NA NA NOT_NAMED 1982-09-25 12:00:00 TS 31.0000 -69.6000 30 hurdat_atl main 760 753 O_____________ hurdat_atl AL071982 31.0000 -69.6000 TD 30 -1 15 38
1982267N25289 1982 82 NA NA NOT_NAMED 1982-09-25 15:00:00 TS 31.6350 -69.0500 main 753 747 P_____________ AL071982 31.6350 -69.0500 TD 30 -1 16 36
1982267N25289 1982 82 NA NA NOT_NAMED 1982-09-25 18:00:00 TS 32.3000 -68.5000 30 hurdat_atl main 752 748 O_____________ hurdat_atl AL071982 32.3000 -68.5000 TD 30 -1 15 35
1982267N25289 1982 82 NA NA NOT_NAMED 1982-09-25 21:00:00 TS 32.8994 -68.0134 main 759 753 P_____________ AL071982 32.8994 -68.0134 TD 30 -1 15 35
1982267N25289 1982 82 NA NA NOT_NAMED 1982-09-26 00:00:00 TS 33.5000 -67.5000 30 hurdat_atl main 773 773 O_____________ hurdat_atl AL071982 33.5000 -67.5000 TD 30 -1 16 37
1982267N25289 1982 82 NA NA NOT_NAMED 1982-09-26 03:00:00 TS 34.1501 -66.8650 main 801 801 P_____________ AL071982 34.1501 -66.8650 TD 30 -1 17 40
1982267N25289 1982 82 NA NA NOT_NAMED 1982-09-26 06:00:00 TS 34.8000 -66.2000 30 hurdat_atl main 836 798 O_____________ hurdat_atl AL071982 34.8000 -66.2000 TD 30 -1 17 40
1982267N25289 1982 82 NA NA NOT_NAMED 1982-09-26 09:00:00 TS 35.4223 -65.5769 main 798 767 P_____________ AL071982 35.4223 -65.5769 TD 30 -1 15 39
1982267N25289 1982 82 NA NA NOT_NAMED 1982-09-26 12:00:00 TS 36.0000 -65.0000 30 hurdat_atl main 767 747 O_____________ hurdat_atl AL071982 36.0000 -65.0000 TD 30 -1 14 39
1982267N25289 1982 82 NA NA NOT_NAMED 1982-09-26 15:00:00 TS 36.5146 -64.4838 main 747 731 P_____________ AL071982 36.5146 -64.4838 TD 30 -1 13 39
1982267N25289 1982 82 NA NA NOT_NAMED 1982-09-26 18:00:00 TS 37.0000 -64.0000 30 hurdat_atl main 731 682 O_____________ hurdat_atl AL071982 37.0000 -64.0000 TD 30 -1 12 38
1982267N25289 1982 82 NA NA NOT_NAMED 1982-09-26 21:00:00 TS 37.4842 -63.5356 main 684 641 P_____________ AL071982 37.4842 -63.5356 TD 27 -1 13 38
1982267N25289 1982 82 NA NA NOT_NAMED 1982-09-27 00:00:00 TS 38.0000 -63.0000 25 hurdat_atl main 641 599 O_____________ hurdat_atl AL071982 38.0000 -63.0000 TD 25 -1 15 41
1982267N25289 1982 82 NA NA NOT_NAMED 1982-09-27 03:00:00 TS 38.6078 -62.2809 main 599 573 P_____________ AL071982 38.6078 -62.2809 TD 25 -1 17 44
1982267N25289 1982 82 NA NA NOT_NAMED 1982-09-27 06:00:00 TS 39.2000 -61.5000 25 hurdat_atl main 573 561 O_____________ hurdat_atl AL071982 39.2000 -61.5000 TD 25 -1 16 47
1982267N25289 1982 82 NA NA NOT_NAMED 1982-09-27 09:00:00 TS 39.6853 -60.7779 main 563 553 P_____________ AL071982 39.6853 -60.7779 TD 22 -1 14 50
1982267N25289 1982 82 NA NA NOT_NAMED 1982-09-27 12:00:00 TS 40.1000 -60.1000 20 hurdat_atl main 557 O_____________ hurdat_atl AL071982 40.1000 -60.1000 TD 20 -1 13 51

About IBTrACS Database

This database is a web-friendly format of International Best Track Archive for Climate Stewardship (IBTrACS), a global best track data archive curated by NOAA dating back to 1842.

Updated: 2021-12-01